Aérodrome :
LOGIN :

S'inscrire | Disclaimer

   EN    FR    IT 

 










Légende :    VFR   VFR Marginal   IFR   IFR Intensif   IFR Très Intensif
Visi : 
Plafond : 
>= 8 km
>= 3000ft
5 à 8 km
1000 à 3000 ft
1500m à 5 km
500 à 1000 ft
800 à 1500m
200 à 500 ft
< 800m
< 200 ft
Symboles :   Orages  Brouillard  Fortes neiges  Fortes précipitations  Vent > 20 kt
SIGMETs :   Divers  Orages  Givrage  Turbulence  Onde Orograph.  Cendres Volcan.







- Altitude de l'aérodrome : 1299 ft


EDTY - Adolf Würth

DERNIER METAR :
  • 141450Z 26007KT 9999 VCSH FEW042TCU BKN069 OVC086 21/12 Q1017

METARs EXPIRÉS :
  • 141420Z 27009KT 9999 VCSH FEW043TCU BKN077 21/12 Q1016
  • 141350Z 25008KT 210V280 9999 FEW042 BKN088 22/12 Q1016
  • 141320Z 27008KT 9999 SCT043 BKN065 OVC076 21/12 Q1016
  • 141250Z 27010KT 240V300 9999 SCT042 OVC064 22/11 Q1016
  • 141220Z 26010KT 9999 FEW041 BKN065 22/12 Q1016

TAF TAF EDTY
Valide du 14 à 15h jusqu'au 15 à 00h UTC


141400Z 1415/1424 27008KT CAVOK
BECMG 1418/1420 25003KT
Pas de NOTAMs connus pour ce terrain.



MET'MAP, la Météo Aéronautique d'un coup d'oeil ! - Copyright ORBIFLY Décembre 2007 - Disclaimer

ORBIFLY MET'MAP TEAM :

Programmation & Développement : Alexandra Zaïnal
Conception & Développement : Baudouin d'Aumeries
Co-Programmation & Développement : Marc-Olivier Méhu
Soutien technique & logistique : Manuel Goepfert

Contact : metmap@orbifly.com




SOURCES & CREDITS :

   NOAA